Time;durP1;ratioP1;P1;durP2;ratioP2;P2;SDS_P1;SDS_P2;PMS_P1;PMS_P2;Temp;Humidity;BMP_temperature;BMP_pressure;BME280_temperature;BME280_humidity;BME280_pressure;Samples;Min_cycle;Max_cycle;Signal;HPM_P1;HPM_P2
2022/04/26 03:36:06;;;;;;;19.10;15.90;;;;;;;10.71;71.50;96415.83;1489444;96;25877;-74
2022/04/26 03:37:20;;;;;;;43.35;28.60;;;;;;;7.32;78.74;96833.67;1683583;85;25769;-74
2022/04/26 03:39:48;;;;;;;41.70;27.32;;;;;;;7.26;78.83;96831.27;1683285;85;25784;-74
2022/04/26 03:42:14;;;;;;;42.05;27.52;;;;;;;7.18;78.86;96836.33;1683596;85;25765;-75
2022/04/26 03:44:42;;;;;;;39.75;26.77;;;;;;;7.10;78.93;96838.38;1683604;85;25979;-74
2022/04/26 03:47:09;;;;;;;41.40;27.82;;;;;;;7.11;79.06;96840.87;1683615;84;28373;-75
2022/04/26 03:49:37;;;;;;;41.53;29.15;;;;;;;7.15;79.19;96838.07;1683471;85;25501;-74
2022/04/26 03:52:04;;;;;;;45.45;27.17;;;;;;;7.22;79.18;96837.58;1683599;85;25709;-74
2022/04/26 03:54:31;;;;;;;41.90;27.27;;;;;;;7.26;79.16;96837.98;1683783;85;25679;-74
2022/04/26 03:56:58;;;;;;;41.33;26.20;;;;;;;7.30;79.08;96843.27;1683692;85;25689;-75
2022/04/26 03:59:24;;;;;;;42.20;27.15;;;;;;;7.29;79.06;96844.80;1683726;84;27304;-74
2022/04/26 04:01:51;;;;;;;37.90;26.55;;;;;;;7.30;79.10;96849.14;1683469;84;25718;-74
2022/04/26 04:04:18;;;;;;;44.48;26.62;;;;;;;7.33;79.07;96850.91;1683343;85;25733;-74
2022/04/26 04:06:44;;;;;;;41.28;26.23;;;;;;;7.32;78.98;96855.97;1683627;85;25728;-74
2022/04/26 04:09:11;;;;;;;41.92;26.12;;;;;;;7.32;79.06;96855.14;1683740;85;25795;-74
2022/04/26 04:11:37;;;;;;;38.98;26.05;;;;;;;7.33;79.05;96854.94;1683635;84;28183;-75
2022/04/26 04:14:04;;;;;;;42.50;25.25;;;;;;;7.32;79.10;96855.97;1683527;85;25780;-74
2022/04/26 04:16:31;;;;;;;39.48;25.05;;;;;;;7.35;79.12;96852.89;1683531;85;25892;-74
2022/04/26 04:21:42;;;;;;;46.58;28.42;;;;;;;7.33;79.10;96852.26;1695380;83;26166;-75
2022/04/26 04:24:09;;;;;;;44.15;28.65;;;;;;;7.37;79.17;96865.56;1695574;83;27382;-74
2022/04/26 04:26:36;;;;;;;44.73;29.30;;;;;;;7.43;79.16;96868.79;1695548;83;25689;-74
2022/04/26 04:29:03;;;;;;;48.95;30.43;;;;;;;7.50;79.13;96874.16;1695524;84;25779;-75
2022/04/26 04:31:29;;;;;;;43.87;29.48;;;;;;;7.52;79.00;96878.30;1695540;84;26499;-74
2022/04/26 04:34:01;;;;;;;45.70;29.52;;;;;;;7.51;79.02;96889.24;1695212;84;26249;-75
2022/04/26 04:36:29;;;;;;;46.90;29.32;;;;;;;7.53;79.15;96884.50;1695548;84;27630;-74
2022/04/26 04:38:57;;;;;;;46.48;29.60;;;;;;;7.55;79.13;96888.64;1695431;84;25638;-74
2022/04/26 04:41:24;;;;;;;45.73;29.32;;;;;;;7.58;79.14;96894.13;1695639;83;25260;-75
2022/04/26 04:43:50;;;;;;;48.75;29.42;;;;;;;7.62;79.18;96898.55;1695557;83;25789;-75
2022/04/26 04:46:17;;;;;;;41.23;27.87;;;;;;;7.67;79.12;96898.77;1695598;84;25786;-76
2022/04/26 04:48:44;;;;;;;39.58;27.07;;;;;;;7.67;78.98;96903.63;1695496;84;27235;-74
2022/04/26 04:51:10;;;;;;;39.08;26.57;;;;;;;7.67;79.00;96898.26;1695560;83;25642;-74
2022/04/26 04:53:37;;;;;;;43.25;27.70;;;;;;;7.66;79.04;96899.80;1695455;84;25812;-75
2022/04/26 04:56:04;;;;;;;39.90;25.48;;;;;;;7.67;79.05;96908.17;1695561;84;26550;-74
2022/04/26 04:58:32;;;;;;;40.88;25.55;;;;;;;7.70;79.01;96907.77;1695484;84;25754;-75
2022/04/26 05:00:58;;;;;;;38.25;25.60;;;;;;;7.73;78.99;96906.03;1695547;84;27406;-75
2022/04/26 05:03:25;;;;;;;37.98;24.87;;;;;;;7.75;78.90;96910.14;1695513;83;25646;-75
2022/04/26 05:05:52;;;;;;;38.33;26.90;;;;;;;7.78;78.87;96911.59;1695398;84;25735;-75
2022/04/26 05:08:18;;;;;;;40.67;26.73;;;;;;;7.77;78.89;96916.66;1695521;83;25778;-75
2022/04/26 05:10:45;;;;;;;41.58;26.25;;;;;;;7.79;78.88;96913.25;1695604;84;25655;-77
2022/04/26 05:13:11;;;;;;;35.92;25.55;;;;;;;7.81;78.79;96917.91;1695520;83;27512;-76
2022/04/26 05:15:38;;;;;;;37.78;25.40;;;;;;;7.82;78.74;96923.59;1695440;83;25659;-75
2022/04/26 05:18:06;;;;;;;36.98;26.55;;;;;;;7.84;78.71;96924.22;1695435;84;25480;-77
2022/04/26 05:20:32;;;;;;;43.45;26.65;;;;;;;7.84;78.63;96927.73;1695196;84;25739;-75
2022/04/26 05:25:45;;;;;;;37.25;25.88;;;;;;;7.89;78.67;96928.44;1695321;84;27428;-76
2022/04/26 05:28:11;;;;;;;34.78;23.80;;;;;;;7.89;78.64;96930.62;1695444;83;25649;-75
2022/04/26 05:30:38;;;;;;;39.90;25.68;;;;;;;7.90;78.65;96932.79;1695599;83;25720;-76
2022/04/26 05:33:05;;;;;;;40.50;27.17;;;;;;;7.90;78.66;96935.47;1695535;83;26586;-77
2022/04/26 05:35:31;;;;;;;34.92;24.87;;;;;;;7.91;78.66;96934.45;1695457;83;25711;-76
2022/04/26 05:37:58;;;;;;;36.60;25.55;;;;;;;7.90;78.63;96941.68;1695518;83;26968;-76
2022/04/26 05:40:25;;;;;;;33.05;23.22;;;;;;;7.91;78.61;96945.20;1695077;84;25765;-74
2022/04/26 05:42:51;;;;;;;33.63;23.25;;;;;;;7.83;78.45;96944.89;1695535;84;25785;-74
2022/04/26 05:45:18;;;;;;;29.32;21.20;;;;;;;7.77;78.56;96950.23;1695552;84;25799;-76
2022/04/26 05:47:45;;;;;;;26.87;20.30;;;;;;;7.78;78.71;96954.58;1695463;83;26784;-75
2022/04/26 05:50:12;;;;;;;26.12;18.90;;;;;;;7.82;78.71;96951.80;1695186;83;27450;-74
2022/04/26 05:52:39;;;;;;;27.62;20.68;;;;;;;7.84;78.68;96958.64;1695599;84;25443;-74
2022/04/26 05:55:07;;;;;;;27.70;19.62;;;;;;;7.86;78.65;96952.52;1695523;83;26743;-75
2022/04/26 05:57:39;;;;;;;28.15;19.07;;;;;;;7.89;78.66;96958.00;1695402;83;25700;-76
2022/04/26 06:00:09;;;;;;;27.85;19.90;;;;;;;7.88;78.61;96959.86;1695674;83;25837;-75
2022/04/26 06:02:35;;;;;;;26.95;19.12;;;;;;;7.86;78.66;96956.55;1660186;86;28108;-76
2022/04/26 06:05:03;;;;;;;26.45;18.92;;;;;;;7.88;78.69;96965.75;1660280;86;25807;-75
2022/04/26 06:07:30;;;;;;;28.05;20.10;;;;;;;7.92;78.79;96968.35;1660265;86;25787;-75
2022/04/26 06:09:57;;;;;;;23.77;17.25;;;;;;;7.96;78.83;96965.58;1660288;86;25867;-77
2022/04/26 06:12:26;;;;;;;21.30;15.70;;;;;;;7.99;78.80;96971.86;1660343;86;25819;-75
2022/04/26 06:14:57;;;;;;;19.45;13.72;;;;;;;7.97;78.83;96972.58;1660213;86;27713;-75
2022/04/26 06:17:24;;;;;;;18.67;14.53;;;;;;;7.98;78.75;96976.09;1633386;87;25812;-75
2022/04/26 06:19:51;;;;;;;18.52;13.62;;;;;;;8.01;78.79;96976.52;1633069;87;25810;-76
2022/04/26 06:22:17;;;;;;;17.50;11.85;;;;;;;8.02;78.74;96984.06;1633027;87;26544;-76
2022/04/26 06:24:44;;;;;;;11.70;9.55;;;;;;;7.98;78.67;96982.30;1633281;87;26075;-75
2022/04/26 06:27:11;;;;;;;12.20;10.20;;;;;;;7.98;78.66;96985.50;1633374;87;27602;-75
2022/04/26 06:29:38;;;;;;;17.65;11.88;;;;;;;8.00;78.70;96988.81;1633182;87;25825;-75
2022/04/26 06:32:05;;;;;;;18.85;14.28;;;;;;;8.03;78.69;96982.52;1633397;87;25780;-76
2022/04/26 06:34:31;;;;;;;13.48;9.75;;;;;;;7.99;78.57;96983.95;1633344;87;25823;-75
2022/04/26 06:36:58;;;;;;;20.57;15.00;;;;;;;7.93;78.46;96984.79;1633314;87;25819;-75
2022/04/26 06:39:25;;;;;;;29.40;20.62;;;;;;;7.91;78.51;96990.36;1633241;87;27456;-75
2022/04/26 06:41:54;;;;;;;29.20;19.98;;;;;;;7.91;78.64;96984.16;1632704;87;25796;-75
2022/04/26 06:44:20;;;;;;;27.70;19.48;;;;;;;7.94;78.64;96990.48;1633453;86;25915;-75
2022/04/26 06:46:47;;;;;;;26.97;18.37;;;;;;;8.00;78.72;96990.98;1633379;87;25850;-76
2022/04/26 06:49:14;;;;;;;21.85;15.43;;;;;;;8.06;78.74;96988.84;1633510;87;26347;-77
2022/04/26 06:51:44;;;;;;;19.23;15.68;;;;;;;8.14;78.69;96984.59;1633467;87;27598;-75
2022/04/26 06:54:12;;;;;;;25.80;18.75;;;;;;;8.19;78.59;96992.05;1633296;87;25832;-77
2022/04/26 06:56:40;;;;;;;29.50;21.10;;;;;;;8.21;78.39;96996.17;1630070;88;26577;-76
2022/04/26 06:59:07;;;;;;;42.08;29.52;;;;;;;8.16;78.46;96997.32;1630042;88;26756;-75
2022/04/26 07:01:34;;;;;;;41.42;30.82;;;;;;;8.19;78.57;97000.95;1630088;86;25838;-76
2022/04/26 07:04:00;;;;;;;43.05;28.95;;;;;;;8.23;78.73;96997.31;1630010;86;27635;-75
2022/04/26 07:06:27;;;;;;;47.33;31.97;;;;;;;8.25;78.46;97004.66;1628918;88;25806;-75
2022/04/26 07:08:54;;;;;;;43.90;30.60;;;;;;;8.27;78.49;97006.11;1628681;88;25896;-75
2022/04/26 07:11:20;;;;;;;42.67;28.52;;;;;;;8.33;78.44;97003.67;1628730;88;26741;-76
2022/04/26 07:13:48;;;;;;;45.10;29.30;;;;;;;8.43;78.50;97006.77;1638040;86;25867;-76
2022/04/26 07:16:14;;;;;;;46.30;29.27;;;;;;;8.50;78.44;97015.66;1655478;86;27735;-76
2022/04/26 07:18:41;;;;;;;43.58;28.02;;;;;;;8.60;78.57;97016.05;1649454;86;25816;-76
2022/04/26 07:21:07;;;;;;;46.58;29.40;;;;;;;8.69;78.36;97020.21;1641680;87;26737;-75
2022/04/26 07:23:34;;;;;;;43.40;29.02;;;;;;;8.77;78.07;97025.88;1641974;87;26470;-76
2022/04/26 07:26:00;;;;;;;49.75;30.88;;;;;;;8.78;77.67;97028.37;1641988;87;25876;-75
2022/04/26 07:28:27;;;;;;;49.42;31.17;;;;;;;8.80;77.53;97026.82;1641867;87;27541;-75
2022/04/26 07:30:54;;;;;;;46.48;30.77;;;;;;;8.84;77.48;97030.20;1641928;87;25800;-75
2022/04/26 07:36:06;;;;;;;50.12;33.98;;;;;;;8.87;77.38;97032.48;1641939;87;25710;-75
2022/04/26 07:38:32;;;;;;;51.65;33.05;;;;;;;8.96;77.28;97036.61;1641922;87;25898;-75
2022/04/26 07:40:59;;;;;;;52.55;33.45;;;;;;;9.01;77.20;97033.30;1641937;87;27370;-77
2022/04/26 07:43:28;;;;;;;48.75;32.58;;;;;;;9.00;77.33;97036.50;1641824;87;25920;-75
2022/04/26 07:45:55;;;;;;;53.98;34.80;;;;;;;9.05;77.21;97033.19;1641927;87;25791;-74
2022/04/26 07:48:22;;;;;;;55.75;38.48;;;;;;;9.15;77.03;97040.31;1641803;87;26494;-77
2022/04/26 07:50:49;;;;;;;54.88;34.85;;;;;;;9.23;76.75;97045.97;1641948;87;25770;-75
2022/04/26 07:53:16;;;;;;;53.42;33.10;;;;;;;9.31;76.63;97045.73;1655912;85;27365;-76
2022/04/26 07:55:43;;;;;;;48.33;32.35;;;;;;;9.39;76.50;97048.22;1678906;85;25521;-75
2022/04/26 07:58:10;;;;;;;50.08;33.55;;;;;;;9.43;76.26;97049.42;1679084;85;25766;-76
2022/04/26 08:00:37;;;;;;;44.15;31.05;;;;;;;9.49;76.23;97045.06;1678976;85;25710;-77
2022/04/26 08:03:05;;;;;;;39.55;26.85;;;;;;;9.53;76.39;97046.30;1679085;85;26273;-75
2022/04/26 08:05:31;;;;;;;40.92;28.87;;;;;;;9.60;76.07;97046.57;1678714;85;28264;-77
2022/04/26 08:07:58;;;;;;;40.38;29.40;;;;;;;9.68;75.90;97042.28;1678868;85;25659;-75
2022/04/26 08:10:25;;;;;;;38.70;26.65;;;;;;;9.72;75.69;97042.16;1679013;85;25690;-77
2022/04/26 08:12:51;;;;;;;37.73;26.20;;;;;;;10.03;75.63;97035.14;1679128;85;25675;-76
2022/04/26 08:15:19;;;;;;;36.42;24.98;;;;;;;10.18;74.58;97041.59;1679047;85;25683;-75
2022/04/26 08:17:48;;;;;;;36.25;25.90;;;;;;;10.32;74.61;97044.54;1678866;85;28726;-77
2022/04/26 08:20:15;;;;;;;37.03;25.20;;;;;;;10.50;74.37;97043.80;1671582;84;25805;-76
2022/04/26 08:22:42;;;;;;;37.60;25.08;;;;;;;10.63;74.00;97044.48;1671309;85;26001;-76
2022/04/26 08:27:54;;;;;;;32.08;24.55;;;;;;;10.78;73.30;97045.52;1671113;85;25724;-75
2022/04/26 08:30:21;;;;;;;34.33;25.48;;;;;;;10.89;72.92;97040.73;1671299;85;27388;-77
2022/04/26 08:32:49;;;;;;;33.25;25.02;;;;;;;10.98;72.85;97046.18;1671236;85;25209;-76
2022/04/26 08:35:23;;;;;;;35.75;24.00;;;;;;;11.13;72.62;97045.80;1671487;85;25767;-76
2022/04/26 08:37:50;;;;;;;33.83;23.38;;;;;;;11.26;72.68;97047.54;1671460;85;25796;-77
2022/04/26 08:40:17;;;;;;;35.48;26.37;;;;;;;11.36;72.13;97050.54;1671376;85;25771;-77
2022/04/26 08:42:46;;;;;;;37.98;26.87;;;;;;;11.38;71.79;97047.09;1671375;85;27340;-76
2022/04/26 08:45:16;;;;;;;34.30;26.10;;;;;;;11.34;72.05;97048.61;1671121;85;26112;-79
2022/04/26 08:53:19;;;;;;;30.52;22.55;;;;;;;11.48;70.39;97051.44;1671154;85;25794;-75
2022/04/26 08:55:53;;;;;;;27.07;19.15;;;;;;;11.29;70.72;97053.85;1671237;85;27397;-75
2022/04/26 08:58:22;;;;;;;27.30;19.55;;;;;;;11.27;70.28;97051.89;1671318;85;25521;-79
2022/04/26 09:01:18;;;;;;;23.60;18.12;;;;;;;11.19;69.89;97055.20;1671515;85;25754;-77
2022/04/26 09:03:55;;;;;;;27.48;21.95;;;;;;;11.05;69.69;97055.03;1671393;85;25670;-79
2022/04/26 09:06:36;;;;;;;29.70;22.30;;;;;;;11.00;70.13;97053.50;1671030;85;25453;-76
2022/04/26 09:09:18;;;;;;;26.97;19.80;;;;;;;11.12;70.21;97055.78;1598278;89;27368;-77
2022/04/26 09:11:46;;;;;;;28.05;21.10;;;;;;;11.27;69.64;97057.30;1598321;89;25902;-77
2022/04/26 09:14:35;;;;;;;30.17;21.60;;;;;;;11.39;69.12;97054.16;1598425;89;25911;-77
2022/04/26 09:17:10;;;;;;;28.67;20.77;;;;;;;11.41;68.61;97060.16;1588062;90;25879;-77
2022/04/26 09:19:53;;;;;;;26.70;19.48;;;;;;;11.34;68.51;97066.18;1560363;91;26551;-82
2022/04/26 09:22:26;;;;;;;26.02;19.48;;;;;;;11.35;68.45;97061.08;1489149;96;28148;-77
2022/04/26 09:25:06;;;;;;;29.75;20.82;;;;;;;11.43;68.38;97070.23;1498263;95;26089;-77
2022/04/26 09:27:38;;;;;;;28.17;19.82;;;;;;;11.51;68.15;97069.39;1498750;95;25901;-78
2022/04/26 09:30:13;;;;;;;30.05;19.77;;;;;;;11.55;67.86;97069.78;1498650;95;35218;-78
2022/04/26 09:32:50;;;;;;;27.05;19.32;;;;;;;11.59;67.72;97065.58;1498582;95;26009;-77
2022/04/26 09:35:23;;;;;;;26.77;19.52;;;;;;;11.68;67.59;97066.09;1508919;95;28342;-78
2022/04/26 09:37:50;;;;;;;26.45;19.48;;;;;;;11.72;67.44;97062.69;1508494;95;25955;-77
2022/04/26 09:40:20;;;;;;;23.60;18.48;;;;;;;11.79;67.25;97066.72;1508676;95;25545;-77
2022/04/26 09:45:16;;;;;;;22.05;17.37;;;;;;;11.78;66.83;97061.01;1434524;97;26009;-76
2022/04/26 09:47:44;;;;;;;25.92;18.50;;;;;;;11.82;66.49;97065.75;1437182;98;28418;-76
2022/04/26 09:50:14;;;;;;;25.57;17.32;;;;;;;11.81;66.17;97066.80;1432710;98;25808;-76
2022/04/26 09:52:41;;;;;;;21.52;16.73;;;;;;;11.82;66.09;97073.86;1445566;96;25887;-79
2022/04/26 09:55:11;;;;;;;21.77;17.23;;;;;;;11.87;65.75;97058.28;1461382;96;26091;-76
2022/04/26 09:57:39;;;;;;;24.43;17.30;;;;;;;11.90;65.96;97064.59;1461454;96;25324;-77
2022/04/26 10:00:10;;;;;;;23.62;18.30;;;;;;;11.98;65.61;97064.27;1461251;96;28375;-78
2022/04/26 10:02:38;;;;;;;22.70;18.30;;;;;;;12.06;65.42;97062.62;1461428;97;25898;-76
2022/04/26 10:05:07;;;;;;;24.60;17.15;;;;;;;12.00;65.28;97065.40;1479822;95;25901;-77
2022/04/26 10:07:41;;;;;;;19.77;15.30;;;;;;;11.90;64.87;97066.78;1535805;93;25921;-77
2022/04/26 10:10:09;;;;;;;18.32;14.90;;;;;;;11.85;64.92;97061.21;1533058;93;25459;-79
2022/04/26 10:12:36;;;;;;;16.95;14.70;;;;;;;11.94;64.79;97063.62;1535666;93;27425;-76
2022/04/26 10:15:05;;;;;;;18.98;13.25;;;;;;;12.02;64.37;97066.00;1535419;92;25554;-76
2022/04/26 10:17:32;;;;;;;16.77;13.28;;;;;;;12.06;63.89;97069.91;1558557;90;26154;-76
2022/04/26 10:20:00;;;;;;;21.50;15.75;;;;;;;12.08;63.79;97069.13;1542513;91;25756;-79
2022/04/26 10:22:57;;;;;;;21.80;16.95;;;;;;;12.06;63.67;97072.62;1588836;90;25879;-80
2022/04/26 10:25:26;;;;;;;23.92;16.90;;;;;;;12.05;63.83;97067.73;1550817;92;28324;-75
2022/04/26 10:28:24;;;;;;;20.88;17.40;;;;;;;12.04;64.25;97067.43;1588654;90;25748;-76
2022/04/26 10:30:54;;;;;;;20.40;16.07;;;;;;;12.02;64.39;97072.23;1550896;92;25912;-75
2022/04/26 10:33:42;;;;;;;22.05;16.73;;;;;;;11.96;64.32;97075.02;1588858;90;26453;-75
2022/04/26 10:36:34;;;;;;;20.80;16.12;;;;;;;11.87;64.27;97079.39;1550837;92;25809;-76
2022/04/26 10:39:16;;;;;;;22.77;16.52;;;;;;;11.61;63.92;97074.27;1588993;88;32427;-77
2022/04/26 10:41:47;;;;;;;28.02;16.73;;;;;;;11.31;64.63;97077.43;1550764;92;25829;-79
2022/04/26 10:44:21;;;;;;;20.75;16.50;;;;;;;11.26;65.23;97081.31;1588493;90;25906;-76
2022/04/26 10:46:58;;;;;;;24.25;16.05;;;;;;;11.21;65.02;97079.83;1588980;90;25778;-76
2022/04/26 10:49:41;;;;;;;17.27;14.78;;;;;;;11.15;65.51;97083.70;1697242;83;25769;-78
2022/04/26 10:57:28;;;;;;;20.50;16.00;;;;;;;10.96;65.56;97084.73;1630021;88;25841;-79
2022/04/26 11:00:14;;;;;;;25.02;16.02;;;;;;;10.92;65.71;97076.75;1600876;89;25858;-76
2022/04/26 11:02:47;;;;;;;17.55;12.60;;;;;;;11.00;65.87;97081.86;1600367;89;25819;-75
2022/04/26 11:05:24;;;;;;;19.02;12.98;;;;;;;11.08;65.46;97079.42;1600559;89;27486;-75
2022/04/26 11:07:53;;;;;;;18.07;13.45;;;;;;;11.09;65.31;97080.55;1597985;89;25857;-76
2022/04/26 11:10:26;;;;;;;18.85;14.23;;;;;;;11.13;64.86;97081.74;1600530;89;25958;-75
2022/04/26 11:12:55;;;;;;;15.95;12.28;;;;;;;11.08;64.79;97078.90;1600828;89;25896;-75
2022/04/26 11:15:24;;;;;;;17.92;14.05;;;;;;;11.10;64.87;97088.97;1600701;89;25531;-76
2022/04/26 11:17:54;;;;;;;16.67;12.58;;;;;;;11.18;64.70;97090.02;1600400;87;27559;-76
2022/04/26 11:20:24;;;;;;;15.23;12.03;;;;;;;11.25;64.10;97090.46;1600239;88;25839;-76
2022/04/26 11:22:55;;;;;;;17.12;12.70;;;;;;;11.25;64.10;97094.52;1553814;92;25850;-77
2022/04/26 11:28:12;;;;;;;16.23;12.15;;;;;;;11.26;64.24;97093.47;1564683;91;25879;-76
2022/04/26 11:30:50;;;;;;;16.25;11.97;;;;;;;11.25;63.93;97095.34;1564769;91;27546;-76
2022/04/26 11:33:22;;;;;;;18.80;12.55;;;;;;;11.22;64.42;97096.34;1564938;91;25886;-78
2022/04/26 11:35:54;;;;;;;18.03;12.40;;;;;;;11.29;64.96;97095.73;1560107;91;25865;-75
2022/04/26 11:38:21;;;;;;;14.40;12.07;;;;;;;11.35;64.76;97100.26;1534837;91;26347;-75
2022/04/26 11:41:00;;;;;;;17.75;12.00;;;;;;;11.41;64.25;97103.41;1535843;93;25768;-76
2022/04/26 11:43:32;;;;;;;14.75;12.07;;;;;;;11.45;63.98;97104.62;1523387;92;27491;-77
2022/04/26 11:46:00;;;;;;;17.00;13.22;;;;;;;11.46;64.36;97100.34;1534626;91;25801;-79
2022/04/26 11:48:33;;;;;;;14.33;11.63;;;;;;;11.56;64.41;97105.22;1536300;93;25886;-76
2022/04/26 11:51:02;;;;;;;15.05;11.68;;;;;;;11.63;64.64;97098.38;1530336;92;25861;-76
2022/04/26 11:53:32;;;;;;;14.70;11.03;;;;;;;11.81;64.89;97093.84;1585455;88;25566;-76
2022/04/26 11:56:02;;;;;;;15.18;11.50;;;;;;;12.06;65.06;97088.85;1537240;93;28154;-79
2022/04/26 11:58:34;;;;;;;13.53;10.23;;;;;;;12.26;64.24;97090.75;1539358;93;25767;-77
2022/04/26 12:01:16;;;;;;;13.62;10.43;;;;;;;12.39;63.83;97090.56;1539335;91;25744;-77
2022/04/26 12:03:52;;;;;;;14.80;10.68;;;;;;;12.58;64.19;97085.38;1539177;93;25812;-77
2022/04/26 12:06:35;;;;;;;11.55;9.13;;;;;;;12.80;64.12;97087.56;1538955;93;25883;-77
2022/04/26 12:09:08;;;;;;;9.80;8.43;;;;;;;12.96;63.14;97082.27;1539478;93;27426;-76
2022/04/26 12:11:38;;;;;;;11.60;8.18;;;;;;;13.12;62.43;97079.39;1539017;93;25785;-76
2022/04/26 12:14:14;;;;;;;11.28;8.90;;;;;;;13.32;61.88;97083.13;1539516;91;25845;-76
2022/04/26 12:16:55;;;;;;;12.35;8.83;;;;;;;13.45;61.99;97076.64;1539350;91;26406;-77
2022/04/26 12:19:36;;;;;;;11.88;9.30;;;;;;;13.68;61.79;97079.31;1487813;93;25971;-78
2022/04/26 12:22:04;;;;;;;12.18;8.90;;;;;;;14.13;62.23;97082.13;1507497;93;27488;-74
2022/04/26 12:24:47;;;;;;;12.35;8.80;;;;;;;14.34;61.58;97073.86;1508644;93;25813;-76
2022/04/26 12:27:19;;;;;;;10.70;7.67;;;;;;;14.67;61.33;97069.88;1507299;93;36437;-76
2022/04/26 12:29:51;;;;;;;9.45;7.65;;;;;;;14.92;60.23;97070.02;1508509;93;25811;-78
2022/04/26 12:32:26;;;;;;;8.98;7.28;;;;;;;14.94;59.19;97067.88;1521714;91;25780;-77
2022/04/26 12:35:00;;;;;;;11.97;8.65;;;;;;;14.98;58.49;97070.38;1542412;91;27451;-77
2022/04/26 12:37:30;;;;;;;11.03;9.58;;;;;;;14.96;58.39;97061.67;1561150;90;25799;-76
2022/04/26 12:39:59;;;;;;;10.18;8.95;;;;;;;15.04;58.08;97063.96;1561286;90;25479;-76
2022/04/26 12:42:31;;;;;;;10.75;9.25;;;;;;;15.05;57.94;97065.61;1561085;90;25962;-76
2022/04/26 12:45:00;;;;;;;14.68;9.80;;;;;;;15.02;57.67;97071.53;1561451;90;33234;-76
2022/04/26 12:50:29;;;;;;;14.75;10.10;;;;;;;14.83;57.68;97074.22;1561175;90;25892;-76
2022/04/26 12:53:06;;;;;;;13.22;10.20;;;;;;;14.72;56.92;97064.55;1561103;90;25556;-76
2022/04/26 12:55:39;;;;;;;12.80;9.60;;;;;;;14.85;57.24;97057.14;1549620;90;25775;-77
2022/04/26 12:58:15;;;;;;;9.65;7.90;;;;;;;14.90;56.91;97064.00;1540507;91;25903;-74
2022/04/26 13:00:46;;;;;;;9.65;8.33;;;;;;;15.01;57.06;97059.84;1587328;88;26926;-75
2022/04/26 13:03:19;;;;;;;11.25;8.68;;;;;;;15.07;57.06;97058.03;1539105;91;25957;-75
2022/04/26 13:05:51;;;;;;;11.10;8.18;;;;;;;15.04;57.07;97057.16;1539292;91;25841;-76
2022/04/26 13:08:21;;;;;;;10.50;8.08;;;;;;;15.34;57.51;97054.07;1539377;91;25858;-77
2022/04/26 13:10:48;;;;;;;9.73;7.65;;;;;;;15.45;56.48;97058.61;1539247;91;25847;-77
2022/04/26 13:13:16;;;;;;;10.90;8.45;;;;;;;15.75;55.54;97057.67;1539367;91;27041;-77
2022/04/26 13:15:44;;;;;;;11.35;7.67;;;;;;;16.06;55.70;97053.41;1587989;89;25756;-76
2022/04/26 13:18:14;;;;;;;9.08;7.30;;;;;;;16.14;54.74;97051.63;1606942;89;25874;-78
2022/04/26 13:20:40;;;;;;;7.90;7.10;;;;;;;16.06;54.54;97049.90;1607760;89;25929;-75
2022/04/26 13:23:07;;;;;;;8.05;6.72;;;;;;;16.12;53.52;97048.33;1608917;89;26044;-78
2022/04/26 13:25:33;;;;;;;10.53;7.85;;;;;;;15.96;53.76;97049.75;1609225;89;28685;-76
2022/04/26 13:28:05;;;;;;;10.72;7.17;;;;;;;15.95;53.95;97048.93;1609059;88;25757;-77
2022/04/26 13:30:32;;;;;;;9.13;7.62;;;;;;;15.95;53.44;97046.20;1660070;86;25793;-77
2022/04/26 13:32:59;;;;;;;8.80;6.87;;;;;;;15.83;53.47;97044.16;1660052;85;26434;-79
2022/04/26 13:35:26;;;;;;;8.68;6.65;;;;;;;15.87;53.35;97046.66;1660281;85;25839;-78
2022/04/26 13:37:54;;;;;;;9.90;7.87;;;;;;;15.81;52.67;97039.53;1660039;86;27367;-78
2022/04/26 13:40:22;;;;;;;8.68;7.45;;;;;;;15.69;52.05;97048.35;1659956;86;25806;-76
2022/04/26 13:42:49;;;;;;;8.68;7.30;;;;;;;15.57;52.31;97050.37;1660180;85;25781;-75
2022/04/26 13:45:15;;;;;;;8.83;7.87;;;;;;;15.56;52.38;97044.64;1659829;86;25758;-75
2022/04/26 13:47:42;;;;;;;9.08;7.80;;;;;;;15.59;52.68;97040.86;1660185;86;25827;-77
2022/04/26 13:50:09;;;;;;;8.80;7.65;;;;;;;15.82;53.03;97051.49;1660061;86;27413;-76
2022/04/26 13:52:37;;;;;;;12.35;8.03;;;;;;;16.21;53.06;97038.63;1660053;86;25898;-74
2022/04/26 13:55:05;;;;;;;11.68;8.88;;;;;;;16.42;51.95;97038.85;1660223;85;25890;-75
2022/04/26 13:57:32;;;;;;;10.43;8.65;;;;;;;16.38;51.57;97045.88;1660093;86;25831;-74
2022/04/26 13:59:59;;;;;;;11.45;8.58;;;;;;;16.34;50.86;97036.56;1690441;83;25809;-74
2022/04/26 14:02:26;;;;;;;13.50;10.85;;;;;;;16.41;51.12;97037.20;1693819;84;27412;-78
2022/04/26 14:04:53;;;;;;;15.72;9.78;;;;;;;16.35;51.34;97036.31;1693914;84;25193;-74
2022/04/26 14:07:19;;;;;;;13.13;10.13;;;;;;;16.24;51.61;97041.38;1673905;85;25764;-74
2022/04/26 14:09:46;;;;;;;14.23;11.22;;;;;;;16.34;51.63;97042.02;1693842;84;25690;-74
2022/04/26 14:12:14;;;;;;;15.48;12.30;;;;;;;16.17;52.06;97045.67;1693948;84;25664;-74
2022/04/26 14:22:56;;;;;;;18.45;13.25;;;;;;;15.53;51.61;97051.37;1718192;82;25753;-77
2022/04/26 14:25:23;;;;;;;16.97;12.63;;;;;;;14.98;51.52;97047.27;1686445;85;25683;-74
2022/04/26 14:27:51;;;;;;;14.98;11.75;;;;;;;14.62;52.20;97049.94;1661537;85;27460;-75
2022/04/26 14:30:18;;;;;;;17.17;12.75;;;;;;;14.58;52.27;97046.91;1718457;82;25747;-74
2022/04/26 14:32:45;;;;;;;14.53;12.05;;;;;;;14.38;52.26;97049.21;1718405;83;25806;-73
2022/04/26 14:35:12;;;;;;;16.32;11.68;;;;;;;14.40;52.86;97048.47;1718579;83;26577;-75
2022/04/26 14:37:39;;;;;;;16.52;12.78;;;;;;;14.38;52.86;97051.92;1718552;83;25848;-74
2022/04/26 14:40:08;;;;;;;15.58;11.78;;;;;;;14.28;52.87;97053.10;1686402;83;27440;-77
2022/04/26 14:42:37;;;;;;;16.02;12.65;;;;;;;14.40;53.16;97047.94;1661530;85;25699;-74
2022/04/26 14:45:05;;;;;;;16.52;12.82;;;;;;;14.38;52.70;97046.50;1718236;83;25804;-74
2022/04/26 14:47:31;;;;;;;15.80;12.78;;;;;;;14.05;52.55;97053.50;1718465;83;25858;-75
2022/04/26 14:49:59;;;;;;;16.25;12.45;;;;;;;13.79;52.64;97054.58;1686461;85;25732;-74
2022/04/26 14:52:27;;;;;;;14.33;11.53;;;;;;;13.55;53.08;97055.98;1686386;85;27602;-74
2022/04/26 14:54:55;;;;;;;14.50;12.07;;;;;;;13.38;53.16;97062.39;1661684;86;25751;-77
2022/04/26 14:57:22;;;;;;;16.62;11.78;;;;;;;13.18;53.66;97065.45;1718581;82;25721;-74
2022/04/26 14:59:48;;;;;;;15.35;12.28;;;;;;;13.24;54.32;97064.52;1686488;83;25894;-75
2022/04/26 15:02:19;;;;;;;16.07;11.53;;;;;;;13.32;54.49;97060.91;1661902;85;25748;-78
2022/04/26 15:04:48;;;;;;;14.65;10.90;;;;;;;13.41;54.38;97070.03;1718520;83;27378;-76
2022/04/26 15:07:15;;;;;;;16.37;12.30;;;;;;;13.50;54.47;97065.92;1686379;85;25771;-76
2022/04/26 15:09:51;;;;;;;16.62;12.55;;;;;;;13.45;54.36;97068.50;1661801;85;25790;-76
2022/04/26 15:17:50;;;;;;;16.37;13.00;;;;;;;12.81;53.90;97068.34;1718329;82;28181;-76
2022/04/26 15:20:21;;;;;;;16.52;13.28;;;;;;;12.58;54.67;97071.83;1718346;82;26719;-75
2022/04/26 15:22:48;;;;;;;19.25;13.00;;;;;;;12.53;54.71;97074.43;1641870;86;25715;-77
2022/04/26 15:25:15;;;;;;;18.55;12.25;;;;;;;12.45;54.81;97073.38;1686147;83;25739;-76
2022/04/26 15:27:42;;;;;;;19.12;13.10;;;;;;;12.46;55.04;97079.09;1718278;83;25734;-75
2022/04/26 15:30:11;;;;;;;17.60;13.70;;;;;;;12.46;55.39;97076.92;1717448;83;27420;-76
2022/04/26 15:32:38;;;;;;;16.42;12.30;;;;;;;12.54;55.69;97079.31;1686229;84;25518;-75
2022/04/26 15:35:05;;;;;;;19.48;13.15;;;;;;;12.60;55.96;97076.49;1686379;85;25288;-77
2022/04/26 15:37:32;;;;;;;17.80;13.25;;;;;;;12.62;55.74;97075.73;1661603;85;25767;-76
2022/04/26 15:39:58;;;;;;;16.85;13.48;;;;;;;12.62;55.52;97078.45;1718966;82;25715;-76
2022/04/26 15:42:26;;;;;;;18.30;13.28;;;;;;;12.62;55.61;97086.56;1719211;83;27364;-75
2022/04/26 15:44:52;;;;;;;18.52;13.93;;;;;;;12.57;55.26;97081.01;1719074;83;25721;-76
2022/04/26 15:47:19;;;;;;;19.70;14.43;;;;;;;12.56;55.55;97090.19;1717736;82;25683;-76
2022/04/26 15:49:46;;;;;;;17.90;14.15;;;;;;;12.50;55.76;97085.72;1686118;83;26640;-76